sensor_id;sensor_type;location;lat;lon;timestamp;P1;durP1;ratioP1;P2;durP2;ratioP2
75009;SDS011;63564;46.840;18.336;2022-10-31T00:00:35;34.07;;;13.33;;
75009;SDS011;63564;46.840;18.336;2022-10-31T00:03:36;30.87;;;14.17;;
75009;SDS011;63564;46.840;18.336;2022-10-31T00:06:36;42.07;;;14.87;;
75009;SDS011;63564;46.840;18.336;2022-10-31T00:09:36;47.03;;;15.40;;
75009;SDS011;63564;46.840;18.336;2022-10-31T00:12:37;34.70;;;13.57;;
75009;SDS011;63564;46.840;18.336;2022-10-31T00:15:38;99.25;;;16.92;;
75009;SDS011;63564;46.840;18.336;2022-10-31T00:18:39;36.47;;;13.20;;
75009;SDS011;63564;46.840;18.336;2022-10-31T00:21:39;42.03;;;13.50;;
75009;SDS011;63564;46.840;18.336;2022-10-31T00:24:39;44.60;;;13.30;;
75009;SDS011;63564;46.840;18.336;2022-10-31T00:27:40;36.40;;;14.77;;
75009;SDS011;63564;46.840;18.336;2022-10-31T00:30:41;61.03;;;15.53;;
75009;SDS011;63564;46.840;18.336;2022-10-31T00:33:41;45.37;;;15.30;;
75009;SDS011;63564;46.840;18.336;2022-10-31T00:36:42;33.58;;;13.68;;
75009;SDS011;63564;46.840;18.336;2022-10-31T00:39:43;45.17;;;14.13;;
75009;SDS011;63564;46.840;18.336;2022-10-31T00:42:45;47.28;;;14.40;;
75009;SDS011;63564;46.840;18.336;2022-10-31T00:45:45;49.90;;;14.23;;
75009;SDS011;63564;46.840;18.336;2022-10-31T00:48:45;41.37;;;14.47;;
75009;SDS011;63564;46.840;18.336;2022-10-31T00:51:46;69.85;;;17.00;;
75009;SDS011;63564;46.840;18.336;2022-10-31T00:54:46;50.47;;;14.57;;
75009;SDS011;63564;46.840;18.336;2022-10-31T00:57:46;92.47;;;17.13;;
75009;SDS011;63564;46.840;18.336;2022-10-31T01:00:47;47.60;;;14.23;;
75009;SDS011;63564;46.840;18.336;2022-10-31T01:03:54;54.13;;;14.45;;
75009;SDS011;63564;46.840;18.336;2022-10-31T01:06:55;57.63;;;14.37;;
75009;SDS011;63564;46.840;18.336;2022-10-31T01:09:55;35.40;;;13.63;;
75009;SDS011;63564;46.840;18.336;2022-10-31T01:12:55;64.53;;;15.70;;
75009;SDS011;63564;46.840;18.336;2022-10-31T01:15:56;79.00;;;16.02;;
75009;SDS011;63564;46.840;18.336;2022-10-31T01:18:57;37.03;;;14.47;;
75009;SDS011;63564;46.840;18.336;2022-10-31T01:21:58;41.88;;;14.30;;
75009;SDS011;63564;46.840;18.336;2022-10-31T01:24:58;37.57;;;13.00;;
75009;SDS011;63564;46.840;18.336;2022-10-31T01:27:58;36.53;;;15.03;;
75009;SDS011;63564;46.840;18.336;2022-10-31T01:31:06;31.17;;;13.60;;
75009;SDS011;63564;46.840;18.336;2022-10-31T01:34:07;118.22;;;17.33;;
75009;SDS011;63564;46.840;18.336;2022-10-31T01:37:12;100.05;;;16.83;;
75009;SDS011;63564;46.840;18.336;2022-10-31T01:40:13;47.07;;;13.80;;
75009;SDS011;63564;46.840;18.336;2022-10-31T01:43:13;150.93;;;18.20;;
75009;SDS011;63564;46.840;18.336;2022-10-31T01:46:14;122.73;;;18.30;;
75009;SDS011;63564;46.840;18.336;2022-10-31T01:52:39;93.93;;;15.50;;
75009;SDS011;63564;46.840;18.336;2022-10-31T01:55:42;117.38;;;16.50;;
75009;SDS011;63564;46.840;18.336;2022-10-31T01:58:45;107.40;;;15.80;;
75009;SDS011;63564;46.840;18.336;2022-10-31T02:01:46;198.18;;;20.65;;
75009;SDS011;63564;46.840;18.336;2022-10-31T02:04:49;96.40;;;15.65;;
75009;SDS011;63564;46.840;18.336;2022-10-31T02:08:02;62.10;;;15.90;;
75009;SDS011;63564;46.840;18.336;2022-10-31T02:11:11;63.90;;;14.70;;
75009;SDS011;63564;46.840;18.336;2022-10-31T02:14:12;52.40;;;14.05;;
75009;SDS011;63564;46.840;18.336;2022-10-31T02:17:13;96.13;;;13.20;;
75009;SDS011;63564;46.840;18.336;2022-10-31T02:20:20;80.20;;;14.03;;
75009;SDS011;63564;46.840;18.336;2022-10-31T02:23:45;76.35;;;13.48;;
75009;SDS011;63564;46.840;18.336;2022-10-31T02:27:13;156.77;;;17.60;;
75009;SDS011;63564;46.840;18.336;2022-10-31T02:30:21;61.38;;;15.38;;
75009;SDS011;63564;46.840;18.336;2022-10-31T02:33:30;84.90;;;16.00;;
75009;SDS011;63564;46.840;18.336;2022-10-31T02:37:07;114.23;;;15.93;;
75009;SDS011;63564;46.840;18.336;2022-10-31T02:43:26;121.93;;;17.23;;
75009;SDS011;63564;46.840;18.336;2022-10-31T02:46:37;63.30;;;14.30;;
75009;SDS011;63564;46.840;18.336;2022-10-31T02:52:53;139.83;;;18.30;;
75009;SDS011;63564;46.840;18.336;2022-10-31T02:55:56;56.97;;;14.32;;
75009;SDS011;63564;46.840;18.336;2022-10-31T02:59:02;63.00;;;14.32;;
75009;SDS011;63564;46.840;18.336;2022-10-31T03:08:54;79.68;;;14.20;;
75009;SDS011;63564;46.840;18.336;2022-10-31T03:15:21;112.07;;;14.85;;
75009;SDS011;63564;46.840;18.336;2022-10-31T03:18:34;79.45;;;13.32;;
75009;SDS011;63564;46.840;18.336;2022-10-31T03:21:48;54.40;;;14.40;;
75009;SDS011;63564;46.840;18.336;2022-10-31T03:24:54;52.13;;;13.23;;
75009;SDS011;63564;46.840;18.336;2022-10-31T03:27:55;50.07;;;13.47;;
75009;SDS011;63564;46.840;18.336;2022-10-31T03:30:57;46.45;;;13.95;;
75009;SDS011;63564;46.840;18.336;2022-10-31T03:34:01;42.08;;;13.55;;
75009;SDS011;63564;46.840;18.336;2022-10-31T03:37:03;63.10;;;14.60;;
75009;SDS011;63564;46.840;18.336;2022-10-31T03:40:06;48.97;;;14.40;;
75009;SDS011;63564;46.840;18.336;2022-10-31T03:43:10;54.97;;;12.70;;
75009;SDS011;63564;46.840;18.336;2022-10-31T03:46:15;90.28;;;14.57;;
75009;SDS011;63564;46.840;18.336;2022-10-31T03:49:15;74.40;;;14.55;;
75009;SDS011;63564;46.840;18.336;2022-10-31T03:55:28;83.90;;;12.80;;
75009;SDS011;63564;46.840;18.336;2022-10-31T03:58:34;53.58;;;12.77;;
75009;SDS011;63564;46.840;18.336;2022-10-31T04:01:40;113.03;;;13.98;;
75009;SDS011;63564;46.840;18.336;2022-10-31T04:04:44;93.63;;;14.37;;
75009;SDS011;63564;46.840;18.336;2022-10-31T04:07:47;100.82;;;15.45;;
75009;SDS011;63564;46.840;18.336;2022-10-31T04:10:52;131.82;;;17.08;;
75009;SDS011;63564;46.840;18.336;2022-10-31T04:13:53;88.70;;;14.90;;
75009;SDS011;63564;46.840;18.336;2022-10-31T04:16:55;77.80;;;14.88;;
75009;SDS011;63564;46.840;18.336;2022-10-31T04:19:58;51.73;;;11.73;;
75009;SDS011;63564;46.840;18.336;2022-10-31T04:23:00;40.13;;;11.13;;
75009;SDS011;63564;46.840;18.336;2022-10-31T04:26:01;54.53;;;12.17;;
75009;SDS011;63564;46.840;18.336;2022-10-31T04:29:02;85.32;;;14.13;;
75009;SDS011;63564;46.840;18.336;2022-10-31T04:32:02;57.53;;;14.10;;
75009;SDS011;63564;46.840;18.336;2022-10-31T04:35:03;47.97;;;11.60;;
75009;SDS011;63564;46.840;18.336;2022-10-31T04:38:03;65.23;;;12.87;;
75009;SDS011;63564;46.840;18.336;2022-10-31T04:41:04;64.30;;;12.60;;
75009;SDS011;63564;46.840;18.336;2022-10-31T04:44:04;43.07;;;11.43;;
75009;SDS011;63564;46.840;18.336;2022-10-31T04:47:05;35.40;;;11.77;;
75009;SDS011;63564;46.840;18.336;2022-10-31T04:50:05;63.20;;;12.50;;
75009;SDS011;63564;46.840;18.336;2022-10-31T04:53:06;85.40;;;13.40;;
75009;SDS011;63564;46.840;18.336;2022-10-31T04:56:06;53.03;;;11.47;;
75009;SDS011;63564;46.840;18.336;2022-10-31T04:59:06;74.40;;;12.87;;
75009;SDS011;63564;46.840;18.336;2022-10-31T05:02:07;67.20;;;11.30;;
75009;SDS011;63564;46.840;18.336;2022-10-31T05:05:07;60.83;;;11.48;;
75009;SDS011;63564;46.840;18.336;2022-10-31T05:08:08;76.50;;;13.33;;
75009;SDS011;63564;46.840;18.336;2022-10-31T05:11:08;48.23;;;10.93;;
75009;SDS011;63564;46.840;18.336;2022-10-31T05:14:08;40.70;;;11.67;;
75009;SDS011;63564;46.840;18.336;2022-10-31T05:17:09;66.10;;;13.40;;
75009;SDS011;63564;46.840;18.336;2022-10-31T05:20:10;75.63;;;12.90;;
75009;SDS011;63564;46.840;18.336;2022-10-31T05:23:11;33.35;;;11.23;;
75009;SDS011;63564;46.840;18.336;2022-10-31T05:26:11;46.13;;;10.80;;
75009;SDS011;63564;46.840;18.336;2022-10-31T05:29:12;44.67;;;12.07;;
75009;SDS011;63564;46.840;18.336;2022-10-31T05:32:12;38.63;;;11.77;;
75009;SDS011;63564;46.840;18.336;2022-10-31T05:35:14;34.53;;;10.25;;
75009;SDS011;63564;46.840;18.336;2022-10-31T05:38:17;35.50;;;11.20;;
75009;SDS011;63564;46.840;18.336;2022-10-31T05:41:17;31.73;;;10.33;;
75009;SDS011;63564;46.840;18.336;2022-10-31T05:44:17;29.70;;;10.43;;
75009;SDS011;63564;46.840;18.336;2022-10-31T05:47:18;29.87;;;8.80;;
75009;SDS011;63564;46.840;18.336;2022-10-31T05:50:19;24.93;;;8.80;;
75009;SDS011;63564;46.840;18.336;2022-10-31T05:53:20;39.60;;;9.27;;
75009;SDS011;63564;46.840;18.336;2022-10-31T05:56:21;32.23;;;9.27;;
75009;SDS011;63564;46.840;18.336;2022-10-31T05:59:21;31.90;;;10.13;;
75009;SDS011;63564;46.840;18.336;2022-10-31T06:02:21;37.20;;;9.90;;
75009;SDS011;63564;46.840;18.336;2022-10-31T06:05:22;56.73;;;11.20;;
75009;SDS011;63564;46.840;18.336;2022-10-31T06:08:22;36.70;;;11.03;;
75009;SDS011;63564;46.840;18.336;2022-10-31T06:11:23;46.90;;;11.10;;
75009;SDS011;63564;46.840;18.336;2022-10-31T06:14:23;43.23;;;10.77;;
75009;SDS011;63564;46.840;18.336;2022-10-31T06:17:23;23.85;;;10.00;;
75009;SDS011;63564;46.840;18.336;2022-10-31T06:20:24;19.07;;;11.13;;
75009;SDS011;63564;46.840;18.336;2022-10-31T06:23:24;23.27;;;10.63;;
75009;SDS011;63564;46.840;18.336;2022-10-31T06:26:24;33.40;;;12.10;;
75009;SDS011;63564;46.840;18.336;2022-10-31T06:29:25;24.97;;;12.13;;
75009;SDS011;63564;46.840;18.336;2022-10-31T06:32:25;33.70;;;11.83;;
75009;SDS011;63564;46.840;18.336;2022-10-31T06:35:26;26.95;;;11.30;;
75009;SDS011;63564;46.840;18.336;2022-10-31T06:38:26;27.63;;;11.27;;
75009;SDS011;63564;46.840;18.336;2022-10-31T06:41:27;25.27;;;11.00;;
75009;SDS011;63564;46.840;18.336;2022-10-31T06:44:28;18.45;;;10.18;;
75009;SDS011;63564;46.840;18.336;2022-10-31T06:47:28;23.97;;;9.50;;
75009;SDS011;63564;46.840;18.336;2022-10-31T06:50:28;26.67;;;10.93;;
75009;SDS011;63564;46.840;18.336;2022-10-31T06:53:29;30.07;;;10.10;;
75009;SDS011;63564;46.840;18.336;2022-10-31T06:56:32;34.95;;;10.30;;
75009;SDS011;63564;46.840;18.336;2022-10-31T06:59:32;22.80;;;9.50;;
75009;SDS011;63564;46.840;18.336;2022-10-31T07:02:32;22.33;;;9.23;;
75009;SDS011;63564;46.840;18.336;2022-10-31T07:05:33;28.73;;;11.00;;
75009;SDS011;63564;46.840;18.336;2022-10-31T07:08:33;23.23;;;10.40;;
75009;SDS011;63564;46.840;18.336;2022-10-31T07:11:33;27.33;;;10.13;;
75009;SDS011;63564;46.840;18.336;2022-10-31T07:14:34;22.30;;;10.18;;
75009;SDS011;63564;46.840;18.336;2022-10-31T07:17:34;27.23;;;9.43;;
75009;SDS011;63564;46.840;18.336;2022-10-31T07:20:34;32.73;;;9.60;;
75009;SDS011;63564;46.840;18.336;2022-10-31T07:23:35;27.37;;;10.33;;
75009;SDS011;63564;46.840;18.336;2022-10-31T07:26:35;24.57;;;9.27;;
75009;SDS011;63564;46.840;18.336;2022-10-31T07:29:35;35.17;;;10.17;;
75009;SDS011;63564;46.840;18.336;2022-10-31T07:35:39;30.27;;;9.15;;
75009;SDS011;63564;46.840;18.336;2022-10-31T07:38:39;34.83;;;10.40;;
75009;SDS011;63564;46.840;18.336;2022-10-31T07:41:40;25.13;;;8.97;;
75009;SDS011;63564;46.840;18.336;2022-10-31T07:44:40;28.10;;;8.20;;
75009;SDS011;63564;46.840;18.336;2022-10-31T07:47:41;20.27;;;8.70;;
75009;SDS011;63564;46.840;18.336;2022-10-31T07:50:43;18.00;;;8.32;;
75009;SDS011;63564;46.840;18.336;2022-10-31T07:53:43;20.23;;;9.40;;
75009;SDS011;63564;46.840;18.336;2022-10-31T07:56:43;18.80;;;9.10;;
75009;SDS011;63564;46.840;18.336;2022-10-31T07:59:44;20.67;;;8.10;;
75009;SDS011;63564;46.840;18.336;2022-10-31T08:02:44;39.53;;;8.82;;
75009;SDS011;63564;46.840;18.336;2022-10-31T08:05:44;48.90;;;10.63;;
75009;SDS011;63564;46.840;18.336;2022-10-31T08:08:46;22.00;;;9.73;;
75009;SDS011;63564;46.840;18.336;2022-10-31T08:11:46;29.38;;;9.82;;
75009;SDS011;63564;46.840;18.336;2022-10-31T08:14:46;28.23;;;9.50;;
75009;SDS011;63564;46.840;18.336;2022-10-31T08:17:47;30.33;;;9.90;;
75009;SDS011;63564;46.840;18.336;2022-10-31T08:20:47;17.73;;;8.50;;
75009;SDS011;63564;46.840;18.336;2022-10-31T08:23:47;24.87;;;8.30;;
75009;SDS011;63564;46.840;18.336;2022-10-31T08:26:48;20.63;;;8.80;;
75009;SDS011;63564;46.840;18.336;2022-10-31T08:29:48;22.08;;;9.23;;
75009;SDS011;63564;46.840;18.336;2022-10-31T08:32:56;22.27;;;9.02;;
75009;SDS011;63564;46.840;18.336;2022-10-31T08:36:01;27.00;;;8.97;;
75009;SDS011;63564;46.840;18.336;2022-10-31T08:39:01;24.58;;;9.57;;
75009;SDS011;63564;46.840;18.336;2022-10-31T08:42:02;22.85;;;9.90;;
75009;SDS011;63564;46.840;18.336;2022-10-31T08:45:03;21.63;;;10.10;;
75009;SDS011;63564;46.840;18.336;2022-10-31T08:48:04;18.05;;;8.75;;
75009;SDS011;63564;46.840;18.336;2022-10-31T08:51:06;20.30;;;8.45;;
75009;SDS011;63564;46.840;18.336;2022-10-31T08:54:06;18.73;;;8.27;;
75009;SDS011;63564;46.840;18.336;2022-10-31T08:57:07;17.73;;;8.63;;
75009;SDS011;63564;46.840;18.336;2022-10-31T09:00:07;18.10;;;8.80;;
75009;SDS011;63564;46.840;18.336;2022-10-31T09:03:12;17.70;;;8.55;;
75009;SDS011;63564;46.840;18.336;2022-10-31T09:06:17;17.02;;;8.57;;
75009;SDS011;63564;46.840;18.336;2022-10-31T09:09:17;17.30;;;9.33;;
75009;SDS011;63564;46.840;18.336;2022-10-31T09:12:17;16.63;;;8.50;;
75009;SDS011;63564;46.840;18.336;2022-10-31T09:15:18;17.67;;;10.00;;
75009;SDS011;63564;46.840;18.336;2022-10-31T09:18:19;20.17;;;8.17;;
75009;SDS011;63564;46.840;18.336;2022-10-31T09:21:20;18.05;;;8.60;;
75009;SDS011;63564;46.840;18.336;2022-10-31T09:24:21;18.03;;;8.07;;
75009;SDS011;63564;46.840;18.336;2022-10-31T09:27:21;20.15;;;9.02;;
75009;SDS011;63564;46.840;18.336;2022-10-31T09:30:22;18.85;;;8.93;;
75009;SDS011;63564;46.840;18.336;2022-10-31T09:33:23;18.30;;;9.57;;
75009;SDS011;63564;46.840;18.336;2022-10-31T09:36:23;17.47;;;10.10;;
75009;SDS011;63564;46.840;18.336;2022-10-31T09:39:23;20.07;;;9.97;;
75009;SDS011;63564;46.840;18.336;2022-10-31T09:45:55;18.58;;;9.93;;
75009;SDS011;63564;46.840;18.336;2022-10-31T09:52:35;15.05;;;9.00;;
75009;SDS011;63564;46.840;18.336;2022-10-31T09:55:39;18.00;;;9.85;;
75009;SDS011;63564;46.840;18.336;2022-10-31T09:58:52;15.83;;;9.23;;
75009;SDS011;63564;46.840;18.336;2022-10-31T10:02:04;20.23;;;10.88;;
75009;SDS011;63564;46.840;18.336;2022-10-31T10:05:18;20.80;;;10.57;;
75009;SDS011;63564;46.840;18.336;2022-10-31T10:08:23;20.42;;;10.32;;
75009;SDS011;63564;46.840;18.336;2022-10-31T10:11:31;20.35;;;11.05;;
75009;SDS011;63564;46.840;18.336;2022-10-31T10:21:20;20.48;;;10.98;;
75009;SDS011;63564;46.840;18.336;2022-10-31T10:31:03;18.63;;;10.70;;
75009;SDS011;63564;46.840;18.336;2022-10-31T10:34:10;18.77;;;11.00;;
75009;SDS011;63564;46.840;18.336;2022-10-31T10:40:23;18.60;;;11.05;;
75009;SDS011;63564;46.840;18.336;2022-10-31T10:46:42;20.27;;;10.47;;
75009;SDS011;63564;46.840;18.336;2022-10-31T10:50:17;16.08;;;9.68;;
75009;SDS011;63564;46.840;18.336;2022-10-31T11:03:31;19.33;;;10.53;;
75009;SDS011;63564;46.840;18.336;2022-10-31T11:06:35;18.05;;;11.27;;
75009;SDS011;63564;46.840;18.336;2022-10-31T11:09:36;17.73;;;10.10;;
75009;SDS011;63564;46.840;18.336;2022-10-31T11:12:37;17.08;;;9.98;;
75009;SDS011;63564;46.840;18.336;2022-10-31T11:15:59;16.13;;;9.43;;
75009;SDS011;63564;46.840;18.336;2022-10-31T11:19:06;14.75;;;9.32;;
75009;SDS011;63564;46.840;18.336;2022-10-31T11:22:20;18.67;;;11.07;;
75009;SDS011;63564;46.840;18.336;2022-10-31T11:25:21;16.47;;;9.67;;
75009;SDS011;63564;46.840;18.336;2022-10-31T11:28:23;18.13;;;10.90;;
75009;SDS011;63564;46.840;18.336;2022-10-31T11:31:25;19.55;;;11.80;;
75009;SDS011;63564;46.840;18.336;2022-10-31T11:34:34;19.50;;;10.95;;
75009;SDS011;63564;46.840;18.336;2022-10-31T11:37:41;16.98;;;10.45;;
75009;SDS011;63564;46.840;18.336;2022-10-31T11:47:25;20.92;;;11.73;;
75009;SDS011;63564;46.840;18.336;2022-10-31T11:50:31;19.25;;;10.98;;
75009;SDS011;63564;46.840;18.336;2022-10-31T11:53:33;20.02;;;11.23;;
75009;SDS011;63564;46.840;18.336;2022-10-31T11:56:38;20.13;;;11.90;;
75009;SDS011;63564;46.840;18.336;2022-10-31T11:59:40;21.40;;;12.30;;
75009;SDS011;63564;46.840;18.336;2022-10-31T12:03:03;31.38;;;16.13;;
75009;SDS011;63564;46.840;18.336;2022-10-31T12:06:30;25.98;;;13.32;;
75009;SDS011;63564;46.840;18.336;2022-10-31T12:09:34;27.95;;;14.38;;
75009;SDS011;63564;46.840;18.336;2022-10-31T12:15:41;23.13;;;13.20;;
75009;SDS011;63564;46.840;18.336;2022-10-31T12:25:07;19.80;;;11.82;;
75009;SDS011;63564;46.840;18.336;2022-10-31T12:31:35;22.50;;;12.70;;
75009;SDS011;63564;46.840;18.336;2022-10-31T12:34:47;21.20;;;12.18;;
75009;SDS011;63564;46.840;18.336;2022-10-31T12:51:15;26.40;;;14.60;;
75009;SDS011;63564;46.840;18.336;2022-10-31T12:57:58;22.48;;;12.75;;
75009;SDS011;63564;46.840;18.336;2022-10-31T13:11:11;30.53;;;18.80;;
75009;SDS011;63564;46.840;18.336;2022-10-31T13:17:38;28.50;;;16.55;;
75009;SDS011;63564;46.840;18.336;2022-10-31T13:20:43;29.70;;;16.02;;
75009;SDS011;63564;46.840;18.336;2022-10-31T13:23:45;30.10;;;16.33;;
75009;SDS011;63564;46.840;18.336;2022-10-31T13:26:53;36.43;;;17.77;;
75009;SDS011;63564;46.840;18.336;2022-10-31T13:30:04;41.05;;;22.08;;
75009;SDS011;63564;46.840;18.336;2022-10-31T13:33:15;29.05;;;17.58;;
75009;SDS011;63564;46.840;18.336;2022-10-31T13:45:52;23.07;;;13.07;;
75009;SDS011;63564;46.840;18.336;2022-10-31T13:48:54;24.15;;;14.23;;
75009;SDS011;63564;46.840;18.336;2022-10-31T13:58:36;28.00;;;15.75;;
75009;SDS011;63564;46.840;18.336;2022-10-31T14:01:36;33.33;;;17.83;;
75009;SDS011;63564;46.840;18.336;2022-10-31T14:04:47;38.38;;;21.55;;
75009;SDS011;63564;46.840;18.336;2022-10-31T14:07:53;32.90;;;18.80;;
75009;SDS011;63564;46.840;18.336;2022-10-31T14:10:54;34.15;;;18.27;;
75009;SDS011;63564;46.840;18.336;2022-10-31T14:13:56;40.00;;;21.10;;
75009;SDS011;63564;46.840;18.336;2022-10-31T14:16:58;34.17;;;19.00;;
75009;SDS011;63564;46.840;18.336;2022-10-31T14:23:12;29.77;;;15.80;;
75009;SDS011;63564;46.840;18.336;2022-10-31T14:26:33;27.42;;;15.55;;
75009;SDS011;63564;46.840;18.336;2022-10-31T14:29:35;26.03;;;14.97;;
75009;SDS011;63564;46.840;18.336;2022-10-31T14:32:36;32.63;;;15.82;;
75009;SDS011;63564;46.840;18.336;2022-10-31T14:35:50;31.47;;;17.00;;
75009;SDS011;63564;46.840;18.336;2022-10-31T14:46:39;38.37;;;18.60;;
75009;SDS011;63564;46.840;18.336;2022-10-31T14:53:14;43.28;;;19.33;;
75009;SDS011;63564;46.840;18.336;2022-10-31T14:56:35;39.95;;;18.33;;
75009;SDS011;63564;46.840;18.336;2022-10-31T14:59:43;39.67;;;19.23;;
75009;SDS011;63564;46.840;18.336;2022-10-31T15:02:51;33.37;;;16.87;;
75009;SDS011;63564;46.840;18.336;2022-10-31T15:06:11;34.33;;;17.00;;
75009;SDS011;63564;46.840;18.336;2022-10-31T15:09:23;38.20;;;19.35;;
75009;SDS011;63564;46.840;18.336;2022-10-31T15:12:29;42.45;;;21.35;;
75009;SDS011;63564;46.840;18.336;2022-10-31T15:15:32;40.78;;;20.10;;
75009;SDS011;63564;46.840;18.336;2022-10-31T15:18:33;48.13;;;24.53;;
75009;SDS011;63564;46.840;18.336;2022-10-31T15:21:34;53.38;;;25.60;;
75009;SDS011;63564;46.840;18.336;2022-10-31T15:24:37;47.20;;;20.73;;
75009;SDS011;63564;46.840;18.336;2022-10-31T15:27:39;47.75;;;23.75;;
75009;SDS011;63564;46.840;18.336;2022-10-31T15:30:48;50.92;;;22.85;;
75009;SDS011;63564;46.840;18.336;2022-10-31T15:33:51;43.88;;;21.65;;
75009;SDS011;63564;46.840;18.336;2022-10-31T15:36:54;46.43;;;22.07;;
75009;SDS011;63564;46.840;18.336;2022-10-31T15:39:54;32.15;;;15.88;;
75009;SDS011;63564;46.840;18.336;2022-10-31T15:43:01;33.03;;;15.37;;
75009;SDS011;63564;46.840;18.336;2022-10-31T15:46:06;28.55;;;15.10;;
75009;SDS011;63564;46.840;18.336;2022-10-31T15:49:15;29.00;;;14.97;;
75009;SDS011;63564;46.840;18.336;2022-10-31T15:52:41;39.67;;;17.50;;
75009;SDS011;63564;46.840;18.336;2022-10-31T15:55:52;41.53;;;19.20;;
75009;SDS011;63564;46.840;18.336;2022-10-31T15:58:56;42.83;;;19.98;;
75009;SDS011;63564;46.840;18.336;2022-10-31T16:01:59;54.28;;;24.45;;
75009;SDS011;63564;46.840;18.336;2022-10-31T16:05:01;58.90;;;27.20;;
75009;SDS011;63564;46.840;18.336;2022-10-31T16:08:02;53.53;;;24.25;;
75009;SDS011;63564;46.840;18.336;2022-10-31T16:14:15;62.70;;;30.35;;
75009;SDS011;63564;46.840;18.336;2022-10-31T16:17:20;70.47;;;32.78;;
75009;SDS011;63564;46.840;18.336;2022-10-31T16:20:26;66.13;;;30.37;;
75009;SDS011;63564;46.840;18.336;2022-10-31T16:23:28;46.90;;;23.65;;
75009;SDS011;63564;46.840;18.336;2022-10-31T16:26:29;46.78;;;19.92;;
75009;SDS011;63564;46.840;18.336;2022-10-31T16:29:34;44.42;;;21.92;;
75009;SDS011;63564;46.840;18.336;2022-10-31T16:32:58;48.50;;;21.48;;
75009;SDS011;63564;46.840;18.336;2022-10-31T16:35:59;47.70;;;21.43;;
75009;SDS011;63564;46.840;18.336;2022-10-31T16:39:03;48.63;;;20.15;;
75009;SDS011;63564;46.840;18.336;2022-10-31T16:42:04;40.50;;;18.83;;
75009;SDS011;63564;46.840;18.336;2022-10-31T16:45:04;38.23;;;18.33;;
75009;SDS011;63564;46.840;18.336;2022-10-31T16:48:08;39.00;;;17.55;;
75009;SDS011;63564;46.840;18.336;2022-10-31T16:51:11;41.30;;;18.33;;
75009;SDS011;63564;46.840;18.336;2022-10-31T16:54:11;35.92;;;17.35;;
75009;SDS011;63564;46.840;18.336;2022-10-31T16:57:13;34.03;;;17.70;;
75009;SDS011;63564;46.840;18.336;2022-10-31T17:00:18;35.85;;;17.45;;
75009;SDS011;63564;46.840;18.336;2022-10-31T17:03:21;37.80;;;18.57;;
75009;SDS011;63564;46.840;18.336;2022-10-31T17:06:21;38.55;;;18.50;;
75009;SDS011;63564;46.840;18.336;2022-10-31T17:09:21;36.57;;;18.07;;
75009;SDS011;63564;46.840;18.336;2022-10-31T17:12:22;39.37;;;18.63;;
75009;SDS011;63564;46.840;18.336;2022-10-31T17:15:26;37.13;;;18.60;;
75009;SDS011;63564;46.840;18.336;2022-10-31T17:18:27;42.27;;;18.93;;
75009;SDS011;63564;46.840;18.336;2022-10-31T17:21:28;45.58;;;20.30;;
75009;SDS011;63564;46.840;18.336;2022-10-31T17:24:28;48.20;;;20.47;;
75009;SDS011;63564;46.840;18.336;2022-10-31T17:27:28;67.70;;;25.30;;
75009;SDS011;63564;46.840;18.336;2022-10-31T17:30:29;96.23;;;30.37;;
75009;SDS011;63564;46.840;18.336;2022-10-31T17:33:30;75.78;;;28.35;;
75009;SDS011;63564;46.840;18.336;2022-10-31T17:36:31;74.60;;;22.97;;
75009;SDS011;63564;46.840;18.336;2022-10-31T17:39:32;69.65;;;24.70;;
75009;SDS011;63564;46.840;18.336;2022-10-31T17:42:32;65.97;;;22.30;;
75009;SDS011;63564;46.840;18.336;2022-10-31T17:45:33;74.33;;;20.40;;
75009;SDS011;63564;46.840;18.336;2022-10-31T17:48:34;64.93;;;21.47;;
75009;SDS011;63564;46.840;18.336;2022-10-31T17:51:35;63.03;;;20.42;;
75009;SDS011;63564;46.840;18.336;2022-10-31T17:54:35;54.27;;;22.30;;
75009;SDS011;63564;46.840;18.336;2022-10-31T17:57:36;57.30;;;21.03;;
75009;SDS011;63564;46.840;18.336;2022-10-31T18:00:37;51.08;;;20.75;;
75009;SDS011;63564;46.840;18.336;2022-10-31T18:03:40;56.25;;;21.60;;
75009;SDS011;63564;46.840;18.336;2022-10-31T18:06:40;48.97;;;22.17;;
75009;SDS011;63564;46.840;18.336;2022-10-31T18:09:40;58.70;;;23.20;;
75009;SDS011;63564;46.840;18.336;2022-10-31T18:12:41;67.93;;;26.20;;
75009;SDS011;63564;46.840;18.336;2022-10-31T18:15:42;60.90;;;26.57;;
75009;SDS011;63564;46.840;18.336;2022-10-31T18:18:42;59.67;;;21.87;;
75009;SDS011;63564;46.840;18.336;2022-10-31T18:21:43;63.55;;;21.60;;
75009;SDS011;63564;46.840;18.336;2022-10-31T18:24:44;72.30;;;21.80;;
75009;SDS011;63564;46.840;18.336;2022-10-31T18:27:45;60.83;;;23.30;;
75009;SDS011;63564;46.840;18.336;2022-10-31T18:30:45;60.63;;;20.60;;
75009;SDS011;63564;46.840;18.336;2022-10-31T18:33:45;57.73;;;19.47;;
75009;SDS011;63564;46.840;18.336;2022-10-31T18:36:46;55.63;;;19.77;;
75009;SDS011;63564;46.840;18.336;2022-10-31T18:39:46;71.00;;;23.23;;
75009;SDS011;63564;46.840;18.336;2022-10-31T18:42:47;65.73;;;22.60;;
75009;SDS011;63564;46.840;18.336;2022-10-31T18:45:47;48.55;;;21.33;;
75009;SDS011;63564;46.840;18.336;2022-10-31T18:48:47;47.43;;;20.30;;
75009;SDS011;63564;46.840;18.336;2022-10-31T18:51:48;44.47;;;19.60;;
75009;SDS011;63564;46.840;18.336;2022-10-31T18:54:49;49.00;;;21.00;;
75009;SDS011;63564;46.840;18.336;2022-10-31T18:57:49;55.13;;;22.00;;
75009;SDS011;63564;46.840;18.336;2022-10-31T19:00:50;63.70;;;23.93;;
75009;SDS011;63564;46.840;18.336;2022-10-31T19:03:51;60.57;;;24.23;;
75009;SDS011;63564;46.840;18.336;2022-10-31T19:06:55;59.13;;;22.25;;
75009;SDS011;63564;46.840;18.336;2022-10-31T19:09:56;62.33;;;24.23;;
75009;SDS011;63564;46.840;18.336;2022-10-31T19:12:56;70.80;;;24.70;;
75009;SDS011;63564;46.840;18.336;2022-10-31T19:16:01;68.00;;;24.13;;
75009;SDS011;63564;46.840;18.336;2022-10-31T19:19:03;64.30;;;24.05;;
75009;SDS011;63564;46.840;18.336;2022-10-31T19:22:04;61.13;;;25.02;;
75009;SDS011;63564;46.840;18.336;2022-10-31T19:25:04;66.37;;;25.00;;
75009;SDS011;63564;46.840;18.336;2022-10-31T19:28:05;67.60;;;23.77;;
75009;SDS011;63564;46.840;18.336;2022-10-31T19:31:06;57.47;;;23.27;;
75009;SDS011;63564;46.840;18.336;2022-10-31T19:34:08;71.97;;;24.52;;
75009;SDS011;63564;46.840;18.336;2022-10-31T19:37:09;62.35;;;23.55;;
75009;SDS011;63564;46.840;18.336;2022-10-31T19:40:10;59.20;;;24.73;;
75009;SDS011;63564;46.840;18.336;2022-10-31T19:43:10;56.55;;;23.70;;
75009;SDS011;63564;46.840;18.336;2022-10-31T19:46:11;55.37;;;23.03;;
75009;SDS011;63564;46.840;18.336;2022-10-31T19:49:13;61.15;;;23.98;;
75009;SDS011;63564;46.840;18.336;2022-10-31T19:52:13;54.90;;;23.67;;
75009;SDS011;63564;46.840;18.336;2022-10-31T19:55:13;58.83;;;23.70;;
75009;SDS011;63564;46.840;18.336;2022-10-31T19:58:14;56.20;;;22.47;;
75009;SDS011;63564;46.840;18.336;2022-10-31T20:01:15;57.53;;;24.10;;
75009;SDS011;63564;46.840;18.336;2022-10-31T20:04:17;53.97;;;23.83;;